Weather at Fagernes flyplass - Strandefjorden

Public forecast

Using degrees Celsius for public forecast. Weather courtesy of forecast.io.

Closest aviation weather report (METAR) to Fagernes flyplass - Strandefjorden

Closest report is Sogndal Airport, Hauk√•sen, 61.8 nm (114.4 km) W.

2024/05/30 04:20 (retrieved 13 minutes ago)

ENSG 300420Z 03006KT 9999 SCT045 BKN075 12/05 Q1008 RMK WIND 3806FT 10017KT

Closest aviation forecast (TAF) to Fagernes flyplass - Strandefjorden

Forecast is more than 12 hours old.

Closest forecast is Quaqtaq Airport, 2,152.3 nm (3,986.1 km) NW.

2024/05/29 14:00 (retrieved 15 hours ago)

TAF CYHA 291340Z 2914/2921 28007KT P6SM BKN030 TEMPO 2914/2918 BKN020 BECMG 2916/2918 18008KT RMK NXT FCST BY 301400Z